Terminal Aerodrome Forecast
Issued by NWS Charleston, WV

Current Version | Previous Version | Graphics & Text | Print | Product List | Glossary On
Versions: 1 2 3 4 5 6 7 8 9 10 11 12 13 14 15 16 17 18 19 20 21 22 23 24 25 26 27 28
000
FTUS41 KRLX 191400 AAA
TAFBKW
TAF AMD
KBKW 191455Z 1915/2012 13008G14KT P6SM VCSH SCT015 BKN035
      TEMPO 1915/1917 BKN015
     FM200000 13008KT P6SM SCT015
     FM200300 14010G15KT P6SM SCT015
     FM200800 16006KT P6SM SCT025=

USA.gov is the U.S. government's official web portal to all federal, state and local government web resources and services.